Time;durP1;ratioP1;P1;durP2;ratioP2;P2;SDS_P1;SDS_P2;PMS_P1;PMS_P2;Temp;Humidity;BMP_temperature;BMP_pressure;BME280_temperature;BME280_humidity;BME280_pressure;Samples;Min_cycle;Max_cycle;Signal;HPM_P1;HPM_P2
2023/12/27 00:01:05;;;;;;;77.68;59.35;;;;;;;14.93;100.00;101782.25;143727;594;46004;-70
2023/12/27 00:03:32;;;;;;;74.05;57.35;;;;;;;14.96;100.00;101776.44;143727;586;49000;-70
2023/12/27 00:05:58;;;;;;;71.28;55.00;;;;;;;14.88;100.00;101779.34;143736;569;46008;-71
2023/12/27 00:08:25;;;;;;;73.03;54.10;;;;;;;14.91;100.00;101777.06;143729;587;47002;-70
2023/12/27 00:10:51;;;;;;;71.82;51.78;;;;;;;14.89;100.00;101772.91;143734;589;46008;-71
2023/12/27 00:13:18;;;;;;;67.20;48.78;;;;;;;14.91;100.00;101777.06;143734;582;46006;-71
2023/12/27 00:15:45;;;;;;;65.50;47.90;;;;;;;14.96;100.00;101781.88;143734;590;46006;-71
2023/12/27 00:18:12;;;;;;;61.75;48.58;;;;;;;14.98;100.00;101779.78;143733;610;46010;-71
2023/12/27 00:20:38;;;;;;;60.58;45.75;;;;;;;14.93;100.00;101780.41;143733;579;46008;-70
2023/12/27 00:23:04;;;;;;;57.78;43.42;;;;;;;14.90;100.00;101785.41;143734;595;47006;-71
2023/12/27 00:25:31;;;;;;;55.58;40.67;;;;;;;14.90;100.00;101788.91;143731;589;47002;-70
2023/12/27 00:27:57;;;;;;;58.33;43.33;;;;;;;14.85;100.00;101786.81;143726;591;47007;-71
2023/12/27 00:30:24;;;;;;;56.05;42.38;;;;;;;14.85;100.00;101788.69;143731;597;47004;-70
2023/12/27 00:32:51;;;;;;;58.25;42.40;;;;;;;14.84;100.00;101797.81;143730;578;46006;-71
2023/12/27 00:35:17;;;;;;;59.40;41.83;;;;;;;14.81;100.00;101800.97;143735;611;46004;-71
2023/12/27 00:37:44;;;;;;;56.90;42.10;;;;;;;14.77;100.00;101802.38;143730;577;47008;-70
2023/12/27 00:40:11;;;;;;;59.22;44.15;;;;;;;14.75;100.00;101799.03;143732;605;46004;-70
2023/12/27 00:42:38;;;;;;;55.78;40.22;;;;;;;14.71;100.00;101793.22;143732;668;46006;-70
2023/12/27 00:45:05;;;;;;;52.28;38.95;;;;;;;14.76;100.00;101795.31;143733;600;47008;-70
2023/12/27 00:47:31;;;;;;;54.17;39.08;;;;;;;14.71;100.00;101798.63;143733;660;47006;-70
2023/12/27 00:49:58;;;;;;;52.28;38.80;;;;;;;14.60;100.00;101794.56;143724;656;48002;-70
2023/12/27 00:52:24;;;;;;;52.05;38.33;;;;;;;14.58;100.00;101801.19;143734;567;46007;-70
2023/12/27 00:54:52;;;;;;;46.20;35.60;;;;;;;14.63;100.00;101802.28;143733;599;47002;-70
2023/12/27 00:57:19;;;;;;;44.35;33.88;;;;;;;14.67;100.00;101808.12;143733;616;48008;-70
2023/12/27 00:59:46;;;;;;;44.10;33.00;;;;;;;14.68;100.00;101807.13;143731;617;46923;-70
2023/12/27 01:02:12;;;;;;;44.17;32.42;;;;;;;14.66;100.00;101812.69;143728;572;46006;-70
2023/12/27 01:04:39;;;;;;;47.75;33.58;;;;;;;14.59;100.00;101811.81;143728;577;46020;-70
2023/12/27 01:07:05;;;;;;;40.67;30.58;;;;;;;14.61;100.00;101803.50;143725;632;46010;-71
2023/12/27 01:09:32;;;;;;;39.65;29.55;;;;;;;14.58;100.00;101810.16;143721;592;47013;-70
2023/12/27 01:11:58;;;;;;;39.95;29.27;;;;;;;14.53;100.00;101810.75;143727;581;46002;-69
2023/12/27 01:14:25;;;;;;;38.83;28.25;;;;;;;14.51;100.00;101810.09;143726;589;47004;-70
2023/12/27 01:16:51;;;;;;;40.17;27.58;;;;;;;14.44;100.00;101808.41;143726;596;46010;-71
2023/12/27 01:19:18;;;;;;;36.53;26.62;;;;;;;14.46;100.00;101817.16;143722;569;47004;-70
2023/12/27 01:21:44;;;;;;;34.70;24.90;;;;;;;14.50;100.00;101813.84;143727;589;46007;-70
2023/12/27 01:24:10;;;;;;;35.20;25.52;;;;;;;14.51;100.00;101812.81;143724;594;47004;-71
2023/12/27 01:26:36;;;;;;;36.83;23.92;;;;;;;14.51;100.00;101815.50;143728;588;46004;-70
2023/12/27 01:29:03;;;;;;;36.80;26.05;;;;;;;14.52;100.00;101817.19;143728;630;46005;-70
2023/12/27 01:31:29;;;;;;;35.25;24.48;;;;;;;14.52;100.00;101816.34;143728;619;46006;-70
2023/12/27 01:33:55;;;;;;;29.67;21.95;;;;;;;14.51;100.00;101815.50;143726;607;47006;-70
2023/12/27 01:36:23;;;;;;;24.52;19.83;;;;;;;14.45;100.00;101818.19;143725;586;47010;-71
2023/12/27 01:38:49;;;;;;;25.83;18.87;;;;;;;14.43;100.00;101825.66;143725;567;46008;-70
2023/12/27 01:41:15;;;;;;;27.23;19.95;;;;;;;14.38;100.00;101827.06;143723;619;47002;-70
2023/12/27 01:43:42;;;;;;;24.90;18.62;;;;;;;14.39;100.00;101826.03;143723;572;46008;-70
2023/12/27 01:46:09;;;;;;;29.27;19.65;;;;;;;14.40;100.00;101822.31;143726;572;46919;-70
2023/12/27 01:48:36;;;;;;;22.87;16.52;;;;;;;14.43;100.00;101814.84;143726;609;47004;-70
2023/12/27 01:51:03;;;;;;;20.00;15.60;;;;;;;14.42;100.00;101816.69;143720;591;46921;-70
2023/12/27 01:53:30;;;;;;;19.25;13.95;;;;;;;14.40;100.00;101814.19;143728;606;47004;-70
2023/12/27 01:55:57;;;;;;;23.60;15.48;;;;;;;14.40;100.00;101819.59;143728;574;46015;-70
2023/12/27 01:58:23;;;;;;;17.60;14.48;;;;;;;14.37;100.00;101809.19;143726;567;46010;-70
2023/12/27 04:01:29;;;;;;;14.20;10.07;;;;;;;13.89;100.00;101855.72;143738;629;45579;-70
2023/12/27 04:03:56;;;;;;;12.68;10.02;;;;;;;13.86;100.00;101869.62;143725;570;46026;-70
2023/12/27 04:06:22;;;;;;;20.45;17.87;;;;;;;13.84;100.00;101868.16;143723;586;46026;-70
2023/12/27 04:08:48;;;;;;;22.02;18.48;;;;;;;13.76;100.00;101875.34;143724;650;46008;-70
2023/12/27 04:11:15;;;;;;;18.95;12.52;;;;;;;13.73;100.00;101883.84;143723;620;46024;-70
2023/12/27 04:13:42;;;;;;;18.27;12.75;;;;;;;13.80;100.00;101879.31;143720;602;47010;-70
2023/12/27 04:16:08;;;;;;;20.42;14.43;;;;;;;13.85;100.00;101883.31;143726;634;46006;-70
2023/12/27 04:18:34;;;;;;;21.90;13.93;;;;;;;13.88;100.00;101877.53;143719;584;46008;-70
2023/12/27 04:21:00;;;;;;;20.40;14.00;;;;;;;13.91;100.00;101883.38;143719;595;47007;-70
2023/12/27 04:23:27;;;;;;;20.37;14.80;;;;;;;13.90;100.00;101886.28;143719;629;46012;-70
2023/12/27 04:25:53;;;;;;;19.80;14.45;;;;;;;13.89;100.00;101887.31;143723;580;46926;-69
2023/12/27 04:28:19;;;;;;;20.65;14.50;;;;;;;13.82;100.00;101889.09;143722;600;47009;-69
2023/12/27 04:30:46;;;;;;;22.25;14.13;;;;;;;13.76;100.00;101883.47;143724;592;47006;-70
2023/12/27 04:33:12;;;;;;;17.62;11.95;;;;;;;13.73;100.00;101897.34;143723;584;47010;-70
2023/12/27 04:35:38;;;;;;;18.35;11.85;;;;;;;13.66;100.00;101901.00;143723;595;47011;-70
2023/12/27 04:38:04;;;;;;;18.98;12.95;;;;;;;13.58;100.00;101907.34;143722;577;47008;-70
2023/12/27 04:40:31;;;;;;;18.30;13.38;;;;;;;13.53;100.00;101910.59;143723;635;47006;-71
2023/12/27 04:42:59;;;;;;;18.95;13.52;;;;;;;13.46;100.00;101907.81;143721;576;47010;-70
2023/12/27 04:45:25;;;;;;;19.00;12.05;;;;;;;13.39;100.00;101925.75;143720;572;47006;-70
2023/12/27 04:47:52;;;;;;;17.95;11.90;;;;;;;13.30;100.00;101932.25;143723;567;46924;-71
2023/12/27 04:50:18;;;;;;;19.33;11.55;;;;;;;13.30;100.00;101935.81;143724;568;47006;-71
2023/12/27 04:52:45;;;;;;;21.00;11.32;;;;;;;13.27;100.00;101944.28;143723;604;47012;-70
2023/12/27 04:55:11;;;;;;;23.45;12.20;;;;;;;13.27;100.00;101951.53;143719;574;47006;-70
2023/12/27 04:57:37;;;;;;;22.65;12.88;;;;;;;13.23;100.00;101953.75;143721;613;47009;-70
2023/12/27 05:00:05;;;;;;;23.27;14.18;;;;;;;13.16;100.00;101952.81;143723;572;47006;-70
2023/12/27 05:02:31;;;;;;;25.12;15.13;;;;;;;13.13;100.00;101940.53;143722;601;47006;-70
2023/12/27 05:04:57;;;;;;;26.12;15.57;;;;;;;13.13;100.00;101948.63;143723;599;47004;-70
2023/12/27 05:07:24;;;;;;;19.65;13.80;;;;;;;13.09;100.00;101965.37;143724;569;46008;-70
2023/12/27 05:09:50;;;;;;;20.23;12.55;;;;;;;13.01;100.00;101960.91;143722;575;47004;-69
2023/12/27 05:12:17;;;;;;;23.00;14.23;;;;;;;12.95;100.00;101962.50;143724;608;47012;-71
2023/12/27 05:14:44;;;;;;;22.10;13.65;;;;;;;12.92;100.00;101960.16;143726;589;47004;-69
2023/12/27 05:17:10;;;;;;;20.95;12.52;;;;;;;12.94;100.00;101951.87;143725;610;46008;-70
2023/12/27 05:19:40;;;;;;;21.35;13.18;;;;;;;13.04;100.00;101957.84;143721;579;47005;-71
2023/12/27 05:22:06;;;;;;;20.65;13.05;;;;;;;13.02;100.00;101963.41;143722;622;47010;-71
2023/12/27 05:24:32;;;;;;;19.90;12.20;;;;;;;13.07;100.00;101970.94;143720;573;47010;-70
2023/12/27 05:26:59;;;;;;;18.40;12.35;;;;;;;13.03;100.00;101975.87;143722;630;47008;-70
2023/12/27 05:29:25;;;;;;;22.65;13.98;;;;;;;13.01;100.00;101975.22;143718;582;47008;-70
2023/12/27 05:31:52;;;;;;;21.95;13.27;;;;;;;12.97;100.00;101973.91;143722;572;47012;-70
2023/12/27 05:34:18;;;;;;;21.40;14.48;;;;;;;12.96;100.00;101988.44;143721;608;47007;-71
2023/12/27 05:36:44;;;;;;;18.45;15.70;;;;;;;12.96;100.00;101974.97;143721;595;47008;-70
2023/12/27 05:39:12;;;;;;;29.48;19.12;;;;;;;12.94;100.00;101973.44;143723;694;47004;-70
2023/12/27 05:41:38;;;;;;;27.65;19.65;;;;;;;12.95;100.00;101984.06;143719;568;47011;-70
2023/12/27 05:44:05;;;;;;;27.30;18.30;;;;;;;12.94;100.00;101989.63;143721;614;47006;-70
2023/12/27 05:46:35;;;;;;;29.33;20.00;;;;;;;12.89;100.00;101993.69;143723;572;46015;-70
2023/12/27 05:49:01;;;;;;;32.47;19.33;;;;;;;12.89;100.00;101998.25;143720;696;47004;-71
2023/12/27 05:51:28;;;;;;;29.92;19.02;;;;;;;12.92;100.00;101997.91;143722;582;47010;-71
2023/12/27 05:53:55;;;;;;;27.17;18.35;;;;;;;12.96;100.00;102001.06;143721;596;47006;-70
2023/12/27 05:56:21;;;;;;;25.77;18.52;;;;;;;12.98;100.00;102005.25;143720;626;47008;-71
2023/12/27 05:58:47;;;;;;;30.23;18.15;;;;;;;12.98;100.00;102010.63;143721;685;47006;-70
2023/12/27 06:01:14;;;;;;;30.02;18.65;;;;;;;12.95;100.00;102010.19;143725;572;47012;-70
2023/12/27 06:03:40;;;;;;;30.10;18.48;;;;;;;12.93;100.00;102009.53;143721;580;47006;-70
2023/12/27 06:06:06;;;;;;;26.02;17.10;;;;;;;12.92;100.00;102022.19;143722;567;47008;-70
2023/12/27 06:08:33;;;;;;;26.15;17.73;;;;;;;12.92;100.00;102021.31;143725;638;47008;-70
2023/12/27 06:10:59;;;;;;;37.65;22.45;;;;;;;12.93;100.00;102026.56;143723;585;46996;-70
2023/12/27 06:13:25;;;;;;;29.42;21.90;;;;;;;12.98;100.00;102024.13;143721;623;47010;-70
2023/12/27 06:15:52;;;;;;;28.50;19.75;;;;;;;12.97;100.00;102032.41;143723;662;46008;-71
2023/12/27 06:18:18;;;;;;;26.20;19.40;;;;;;;12.97;100.00;102035.09;143723;624;47006;-70
2023/12/27 06:20:45;;;;;;;25.10;17.08;;;;;;;12.90;100.00;102035.00;143722;576;47013;-70
2023/12/27 06:23:11;;;;;;;22.15;16.08;;;;;;;12.95;100.00;102037.16;143722;579;47010;-71
2023/12/27 06:25:37;;;;;;;31.15;17.27;;;;;;;12.91;100.00;102044.78;143722;575;47002;-71
2023/12/27 06:28:05;;;;;;;32.83;20.30;;;;;;;12.89;100.00;102047.63;143724;586;47006;-71
2023/12/27 06:30:32;;;;;;;25.75;19.73;;;;;;;12.95;100.00;102058.72;143720;663;47012;-70
2023/12/27 06:32:58;;;;;;;28.20;18.37;;;;;;;12.98;100.00;102058.34;143719;623;47007;-70
2023/12/27 06:35:24;;;;;;;28.70;19.10;;;;;;;12.96;100.00;102068.50;143723;668;47008;-72
2023/12/27 06:37:51;;;;;;;32.05;20.75;;;;;;;12.96;100.00;102085.53;143721;588;47004;-72
2023/12/27 06:40:17;;;;;;;29.12;20.02;;;;;;;12.98;100.00;102074.53;143721;635;47011;-70
2023/12/27 06:42:43;;;;;;;30.25;20.60;;;;;;;12.94;100.00;102081.31;143721;614;47006;-70
2023/12/27 06:45:10;;;;;;;32.78;20.00;;;;;;;12.99;100.00;102084.31;143721;644;47008;-70
2023/12/27 06:47:36;;;;;;;33.90;20.65;;;;;;;13.02;100.00;102083.97;143724;591;47006;-70
2023/12/27 06:50:03;;;;;;;30.27;22.23;;;;;;;12.98;100.00;102085.34;143721;646;47013;-70
2023/12/27 06:52:30;;;;;;;35.80;23.55;;;;;;;13.00;100.00;102103.00;143722;580;47010;-70
2023/12/27 06:54:56;;;;;;;40.97;27.42;;;;;;;13.07;100.00;102100.41;143722;573;47008;-70
2023/12/27 06:57:23;;;;;;;42.17;27.48;;;;;;;13.09;100.00;102109.16;143725;588;47004;-70
2023/12/27 06:59:50;;;;;;;32.00;22.42;;;;;;;13.14;100.00;102114.87;143721;622;47012;-70
2023/12/27 07:02:16;;;;;;;32.83;20.00;;;;;;;13.14;100.00;102114.03;143720;645;47006;-70
2023/12/27 07:04:43;;;;;;;26.08;17.10;;;;;;;13.07;100.00;102129.25;143723;627;46008;-71
2023/12/27 07:07:09;;;;;;;18.33;13.82;;;;;;;13.15;100.00;102126.47;143723;630;47006;-70
2023/12/27 07:09:36;;;;;;;18.90;14.70;;;;;;;13.15;100.00;102135.44;143724;654;46012;-70
2023/12/27 07:12:03;;;;;;;16.80;12.65;;;;;;;13.15;100.00;102150.75;143720;613;47006;-70
2023/12/27 07:14:29;;;;;;;18.98;12.20;;;;;;;13.10;100.00;102158.56;143723;588;47008;-70
2023/12/27 07:16:56;;;;;;;16.80;12.45;;;;;;;12.94;100.00;102157.66;143723;572;47004;-68
2023/12/27 07:19:22;;;;;;;15.30;12.18;;;;;;;12.97;100.00;102164.56;143723;588;46010;-70
2023/12/27 07:21:48;;;;;;;18.08;12.50;;;;;;;13.14;100.00;102173.38;143720;581;47004;-71
2023/12/27 07:24:14;;;;;;;17.85;13.60;;;;;;;13.18;100.00;102171.97;143721;671;46008;-70
2023/12/27 07:26:41;;;;;;;18.67;13.82;;;;;;;13.27;100.00;102176.31;143724;603;47002;-71
2023/12/27 07:29:07;;;;;;;20.80;14.93;;;;;;;13.27;100.00;102176.31;143722;589;47012;-70
2023/12/27 07:31:33;;;;;;;21.77;15.18;;;;;;;13.23;100.00;102172.28;143723;569;47004;-68
2023/12/27 07:34:00;;;;;;;22.27;15.23;;;;;;;13.31;100.00;102179.47;143721;593;47004;-68
2023/12/27 07:36:26;;;;;;;20.80;14.52;;;;;;;13.50;100.00;102202.50;143726;608;46012;-68
2023/12/27 07:38:52;;;;;;;25.00;14.63;;;;;;;13.54;100.00;102192.97;143722;713;47012;-68
2023/12/27 07:41:19;;;;;;;21.67;14.77;;;;;;;13.60;100.00;102203.06;143723;585;46016;-69
2023/12/27 07:43:45;;;;;;;20.88;15.02;;;;;;;13.68;100.00;102212.13;143720;584;47008;-68
2023/12/27 07:46:12;;;;;;;18.05;13.82;;;;;;;13.72;100.00;102216.13;143722;604;47004;-70
2023/12/27 07:48:38;;;;;;;16.95;13.43;;;;;;;13.83;100.00;102215.69;143722;573;47012;-68
2023/12/27 07:51:04;;;;;;;19.40;13.35;;;;;;;13.87;100.00;102225.09;143720;606;47010;-68
2023/12/27 07:53:32;;;;;;;20.17;13.27;;;;;;;13.96;100.00;102223.13;143724;585;47008;-68
2023/12/27 07:55:58;;;;;;;17.00;14.13;;;;;;;14.07;100.00;102211.03;143721;589;47004;-67
2023/12/27 07:58:24;;;;;;;20.05;14.20;;;;;;;14.15;100.00;102210.97;143721;572;47010;-66
2023/12/27 08:00:53;;;;;;;19.00;14.52;;;;;;;14.41;100.00;102215.06;143720;756;47014;-67
2023/12/27 08:03:19;;;;;;;18.60;14.13;;;;;;;14.48;100.00;102209.72;143722;593;47008;-67
2023/12/27 08:05:45;;;;;;;25.10;13.43;;;;;;;14.58;100.00;102215.72;143723;577;47004;-67
2023/12/27 08:08:11;;;;;;;22.27;13.13;;;;;;;14.69;100.00;102222.53;143721;593;47010;-69
2023/12/27 08:10:37;;;;;;;22.40;14.35;;;;;;;14.79;100.00;102230.34;143720;586;47006;-68
2023/12/27 08:13:05;;;;;;;17.85;12.60;;;;;;;15.00;100.00;102234.97;143720;649;47004;-67
2023/12/27 08:15:31;;;;;;;17.20;11.90;;;;;;;15.11;100.00;102239.03;143721;588;47004;-67
2023/12/27 08:17:57;;;;;;;17.92;12.00;;;;;;;15.23;100.00;102232.06;143721;608;47010;-66
2023/12/27 08:20:24;;;;;;;13.95;11.95;;;;;;;15.39;100.00;102239.13;143720;588;47006;-67
2023/12/27 08:22:50;;;;;;;14.13;11.40;;;;;;;15.53;100.00;102247.37;143721;605;47008;-67
2023/12/27 08:25:16;;;;;;;17.30;10.93;;;;;;;15.58;100.00;102242.22;143724;570;47004;-67
2023/12/27 08:27:43;;;;;;;15.55;12.27;;;;;;;15.68;100.00;102237.28;143721;574;47006;-66
2023/12/27 08:30:09;;;;;;;19.70;12.02;;;;;;;15.87;100.00;102235.81;143721;667;47006;-68
2023/12/27 08:32:36;;;;;;;14.75;9.65;;;;;;;15.98;100.00;102239.84;143719;595;47004;-67
2023/12/27 08:35:02;;;;;;;13.90;8.45;;;;;;;16.08;100.00;102238.66;143723;615;47002;-66
2023/12/27 08:37:29;;;;;;;10.10;7.10;;;;;;;16.28;100.00;102246.91;143723;576;47002;-67
2023/12/27 08:39:55;;;;;;;11.55;7.35;;;;;;;16.52;100.00;102241.00;143720;602;47005;-66
2023/12/27 08:42:21;;;;;;;11.93;7.18;;;;;;;16.83;100.00;102245.09;143722;582;47006;-66
2023/12/27 08:44:48;;;;;;;9.18;6.45;;;;;;;17.07;100.00;102253.78;143724;572;47002;-66
2023/12/27 08:47:14;;;;;;;11.32;6.93;;;;;;;17.30;100.00;102243.59;143724;659;47010;-66
2023/12/27 08:49:40;;;;;;;10.43;6.65;;;;;;;17.53;100.00;102240.50;143722;645;47004;-59
2023/12/27 08:52:07;;;;;;;12.75;7.72;;;;;;;17.83;100.00;102242.78;143722;657;47006;-60
2023/12/27 08:54:34;;;;;;;12.75;8.45;;;;;;;18.08;100.00;102237.59;143723;575;47002;-61
2023/12/27 08:57:00;;;;;;;16.37;9.20;;;;;;;18.25;100.00;102234.41;143723;575;47010;-60
2023/12/27 08:59:26;;;;;;;16.80;8.15;;;;;;;18.32;99.41;102229.78;143721;578;47004;-59
2023/12/27 09:01:53;;;;;;;13.18;8.07;;;;;;;18.48;98.17;102228.47;143724;619;47007;-59
2023/12/27 09:04:20;;;;;;;9.65;6.55;;;;;;;18.59;96.02;102235.97;143726;643;47006;-59
2023/12/27 09:06:47;;;;;;;15.00;8.10;;;;;;;18.89;95.35;102246.28;143722;573;47010;-61
2023/12/27 09:09:13;;;;;;;18.33;12.13;;;;;;;23.77;81.47;102237.59;143722;626;47006;-59
2023/12/27 09:11:39;;;;;;;13.70;7.45;;;;;;;28.40;58.99;102232.56;143723;608;47008;-61
2023/12/27 09:14:05;;;;;;;18.83;12.13;;;;;;;31.06;49.68;102225.75;143724;627;47004;-62
2023/12/27 09:16:32;;;;;;;14.45;11.32;;;;;;;32.20;44.73;102223.72;143724;597;47010;-60
2023/12/27 09:18:59;;;;;;;12.65;8.45;;;;;;;32.24;42.65;102212.81;143720;854;47006;-62
2023/12/27 09:21:25;;;;;;;10.93;6.72;;;;;;;31.25;42.46;102208.28;143723;959;47008;-61
2023/12/27 09:23:52;;;;;;;11.10;5.85;;;;;;;30.10;42.84;102208.22;143723;859;47004;-59
2023/12/27 09:26:18;;;;;;;8.85;6.53;;;;;;;29.25;44.99;102207.69;143719;664;47013;-59
2023/12/27 09:28:45;;;;;;;9.00;6.93;;;;;;;28.46;46.01;102216.75;143724;573;46010;-60
2023/12/27 09:31:11;;;;;;;9.63;6.05;;;;;;;27.82;46.95;102209.78;143723;660;46009;-59
2023/12/27 09:33:37;;;;;;;12.73;7.20;;;;;;;27.28;48.14;102207.59;143721;574;47004;-59
2023/12/27 09:36:04;;;;;;;17.33;10.40;;;;;;;27.15;49.37;102215.34;143724;740;47010;-59
2023/12/27 09:38:31;;;;;;;12.32;7.75;;;;;;;26.85;49.41;102210.59;143721;569;47006;-60
2023/12/27 09:40:57;;;;;;;14.18;9.02;;;;;;;26.50;50.82;102204.72;143721;638;48005;-61
2023/12/27 09:43:24;;;;;;;16.65;10.63;;;;;;;25.93;52.37;102201.69;143729;597;46008;-61
2023/12/27 09:45:53;;;;;;;17.27;10.38;;;;;;;25.84;52.47;102204.09;143723;582;47012;-61
2023/12/27 09:48:20;;;;;;;15.48;10.30;;;;;;;25.75;53.75;102194.72;143721;609;47006;-61
2023/12/27 09:50:47;;;;;;;15.38;9.57;;;;;;;25.68;54.27;102183.09;143724;572;47002;-60
2023/12/27 09:53:15;;;;;;;15.43;9.50;;;;;;;25.79;54.53;102189.50;143724;603;47004;-62
2023/12/27 09:55:42;;;;;;;14.68;10.18;;;;;;;25.83;54.63;102185.13;143723;698;47006;-60
2023/12/27 09:58:09;;;;;;;20.88;10.15;;;;;;;26.11;54.80;102192.19;143722;572;47006;-59
2023/12/27 10:00:37;;;;;;;14.57;10.00;;;;;;;26.31;54.53;102174.06;143722;568;47008;-59
2023/12/27 10:03:07;;;;;;;13.30;10.75;;;;;;;26.40;53.58;102177.12;143725;626;47006;-60
2023/12/27 10:06:05;;;;;;;12.80;9.98;;;;;;;26.30;54.10;102164.97;143725;626;47010;-60
2023/12/27 10:08:32;;;;;;;13.60;10.20;;;;;;;26.54;55.40;102158.16;143720;646;47006;-61
2023/12/27 10:10:59;;;;;;;16.30;11.65;;;;;;;26.90;52.72;102149.97;143724;700;47008;-62
2023/12/27 10:13:26;;;;;;;15.57;10.00;;;;;;;27.57;52.64;102155.44;143724;585;47004;-61
2023/12/27 10:15:52;;;;;;;17.83;11.07;;;;;;;28.03;49.72;102148.97;143720;576;47010;-60
2023/12/27 10:18:18;;;;;;;15.60;10.15;;;;;;;29.36;49.36;102136.50;143721;598;47006;-60
2023/12/27 10:20:48;;;;;;;12.37;9.57;;;;;;;31.21;46.60;102130.38;143725;612;47008;-62
2023/12/27 10:23:14;;;;;;;18.98;10.95;;;;;;;32.61;42.60;102131.03;143725;678;47004;-60
2023/12/27 10:25:43;;;;;;;15.82;11.32;;;;;;;34.29;40.22;102116.69;143725;572;47006;-60
2023/12/27 10:28:09;;;;;;;13.80;10.13;;;;;;;35.98;37.95;102104.72;143722;616;47006;-60
2023/12/27 10:30:36;;;;;;;13.65;10.18;;;;;;;35.67;37.02;102103.06;143725;659;47008;-61
2023/12/27 10:33:03;;;;;;;13.62;9.95;;;;;;;31.97;39.74;102118.03;143728;702;47002;-62
2023/12/27 10:35:35;;;;;;;13.85;10.57;;;;;;;29.11;42.99;102119.81;143725;614;47012;-61
2023/12/27 10:38:05;;;;;;;13.57;9.05;;;;;;;27.90;46.44;102124.72;143722;630;47006;-61
2023/12/27 10:40:35;;;;;;;14.20;8.63;;;;;;;27.15;47.38;102127.06;143726;683;46008;-60
2023/12/27 10:43:02;;;;;;;17.35;9.38;;;;;;;26.38;48.17;102138.03;143725;681;47006;-59
2023/12/27 10:45:29;;;;;;;11.80;9.32;;;;;;;25.93;49.72;102126.53;143723;701;47011;-59
2023/12/27 10:48:01;;;;;;;13.32;8.63;;;;;;;26.00;50.00;102116.09;143725;662;47006;-62
2023/12/27 10:50:29;;;;;;;14.48;9.95;;;;;;;25.68;50.30;102108.81;143721;597;47008;-59
2023/12/27 10:53:06;;;;;;;15.20;8.98;;;;;;;25.62;51.19;102115.38;143727;656;47002;-59
2023/12/27 10:55:34;;;;;;;15.50;9.55;;;;;;;26.06;49.93;102100.41;143722;679;47010;-59
2023/12/27 10:58:02;;;;;;;17.52;9.95;;;;;;;26.22;50.39;102107.66;143723;622;47006;-60
2023/12/27 11:00:29;;;;;;;12.43;8.70;;;;;;;26.02;49.97;102106.50;143726;573;47008;-58
2023/12/27 11:02:57;;;;;;;14.18;8.18;;;;;;;26.24;49.70;102107.41;143726;569;47006;-60
2023/12/27 11:05:27;;;;;;;14.25;7.75;;;;;;;26.37;49.34;102106.88;143724;566;47010;-59
2023/12/27 11:07:57;;;;;;;12.75;8.23;;;;;;;26.64;49.50;102097.56;143725;582;47007;-60
2023/12/27 11:10:24;;;;;;;11.18;7.85;;;;;;;26.90;48.90;102100.34;143726;620;46008;-60
2023/12/27 11:12:51;;;;;;;14.75;8.48;;;;;;;26.85;48.39;102103.09;143725;589;47006;-58
2023/12/27 11:15:21;;;;;;;12.43;8.05;;;;;;;26.91;48.81;102099.25;143725;597;46030;-59
2023/12/27 11:17:49;;;;;;;12.18;8.13;;;;;;;26.88;48.69;102092.38;143723;573;47011;-58
2023/12/27 11:20:20;;;;;;;12.95;9.10;;;;;;;26.79;48.87;102091.22;143719;569;47008;-60
2023/12/27 11:22:47;;;;;;;13.80;9.00;;;;;;;26.72;49.08;102085.16;143722;618;47006;-60
2023/12/27 11:25:14;;;;;;;14.35;7.55;;;;;;;26.47;48.99;102082.13;143725;596;47006;-60
2023/12/27 11:27:43;;;;;;;15.50;7.35;;;;;;;25.91;50.41;102085.50;143723;633;47006;-58
2023/12/27 11:30:12;;;;;;;13.02;6.43;;;;;;;25.72;50.85;102076.91;143725;578;47002;-59
2023/12/27 11:32:42;;;;;;;13.00;7.32;;;;;;;25.69;51.85;102071.94;143726;569;47007;-58
2023/12/27 11:35:27;;;;;;;12.55;7.65;;;;;;;25.94;51.07;102067.66;143724;583;47012;-59
2023/12/27 11:38:16;;;;;;;14.43;7.55;;;;;;;26.49;49.95;102071.63;143723;584;47006;-58
2023/12/27 11:40:45;;;;;;;17.67;8.02;;;;;;;27.07;49.36;102072.50;143724;581;47008;-63
2023/12/27 11:43:22;;;;;;;13.20;8.23;;;;;;;27.46;49.36;102057.25;143723;604;47004;-59
2023/12/27 11:46:06;;;;;;;11.85;6.28;;;;;;;27.81;48.75;102055.47;143722;596;47010;-59
2023/12/27 11:48:36;;;;;;;13.32;5.00;;;;;;;27.86;47.45;102065.66;143722;638;47010;-60
2023/12/27 11:51:22;;;;;;;8.60;5.47;;;;;;;27.77;47.97;102068.16;143725;592;47008;-60
2023/12/27 11:53:48;;;;;;;12.88;6.55;;;;;;;27.89;48.06;102067.84;143724;597;47006;-61
2023/12/27 11:56:15;;;;;;;11.40;7.15;;;;;;;27.96;48.02;102071.13;143724;572;47012;-60
2023/12/27 11:58:43;;;;;;;12.57;6.45;;;;;;;28.04;47.32;102064.19;143727;567;47010;-60
2023/12/27 12:01:41;;;;;;;13.20;11.05;;;;;;;27.65;48.00;102066.56;143724;574;47008;-60
2023/12/27 12:04:35;;;;;;;8.40;3.90;;;;;;;27.38;48.01;102062.19;143724;585;47004;-60
2023/12/27 12:07:33;;;;;;;27.77;14.13;;;;;;;27.33;47.84;102070.50;143723;642;47012;-58
2023/12/27 12:10:00;;;;;;;16.42;9.05;;;;;;;27.31;47.90;102074.63;143721;592;47006;-58
2023/12/27 12:12:27;;;;;;;29.37;17.23;;;;;;;27.24;48.43;102074.94;143726;579;46008;-59
2023/12/27 12:14:54;;;;;;;22.75;6.07;;;;;;;26.87;48.34;102078.84;143723;583;47006;-59
2023/12/27 12:17:21;;;;;;;13.05;7.00;;;;;;;26.60;48.99;102063.38;143723;590;47010;-62
2023/12/27 12:19:49;;;;;;;12.65;7.75;;;;;;;26.41;49.23;102058.41;143720;630;47006;-61
2023/12/27 12:22:17;;;;;;;14.90;8.52;;;;;;;26.39;48.93;102063.38;143723;629;47922;-61
2023/12/27 12:24:44;;;;;;;17.37;12.27;;;;;;;26.23;48.95;102050.66;143725;616;47006;-61
2023/12/27 12:27:14;;;;;;;14.52;9.73;;;;;;;26.12;49.24;102056.13;143723;584;47012;-60
2023/12/27 12:29:40;;;;;;;16.08;9.70;;;;;;;25.93;49.08;102057.72;143723;586;47006;-60
2023/12/27 12:32:07;;;;;;;12.77;8.13;;;;;;;25.63;49.79;102062.84;143723;578;47008;-60
2023/12/27 12:34:34;;;;;;;17.08;9.90;;;;;;;25.37;50.23;102059.09;143724;585;47004;-59
2023/12/27 12:37:00;;;;;;;14.60;9.38;;;;;;;25.45;50.33;102057.78;143723;570;47012;-60
2023/12/27 12:39:30;;;;;;;14.13;7.75;;;;;;;25.65;49.99;102057.91;143723;600;47006;-60
2023/12/27 12:41:58;;;;;;;7.32;5.37;;;;;;;25.54;49.86;102056.19;143726;574;47008;-59
2023/12/27 12:44:24;;;;;;;12.65;6.47;;;;;;;25.40;49.68;102062.12;143724;575;47004;-61
2023/12/27 12:46:51;;;;;;;9.38;5.60;;;;;;;25.25;50.22;102057.37;143723;567;47007;-61
2023/12/27 12:49:18;;;;;;;12.88;7.75;;;;;;;24.95;51.17;102058.81;143723;586;47006;-62
2023/12/27 12:51:45;;;;;;;12.25;7.72;;;;;;;24.74;51.95;102062.50;143726;578;47002;-61
2023/12/27 12:54:11;;;;;;;14.07;8.00;;;;;;;24.65;52.09;102068.44;143722;617;48004;-61
2023/12/27 12:56:39;;;;;;;12.68;7.05;;;;;;;24.53;51.93;102065.88;143723;605;47010;-60
2023/12/27 12:59:07;;;;;;;13.40;6.82;;;;;;;24.43;52.00;102062.19;143724;577;47006;-61
2023/12/27 13:01:33;;;;;;;8.43;5.05;;;;;;;24.24;51.98;102057.06;143726;595;47008;-60
2023/12/27 13:04:00;;;;;;;9.07;5.18;;;;;;;24.15;51.53;102056.69;143727;586;47002;-60
2023/12/27 13:06:26;;;;;;;11.80;5.15;;;;;;;24.04;52.09;102061.25;143722;590;47006;-60
2023/12/27 13:08:54;;;;;;;11.35;5.15;;;;;;;23.84;52.17;102055.47;143725;655;46011;-68